sensor_id;sensor_type;location;lat;lon;timestamp;pressure;altitude;pressure_sealevel;temperature;humidity
13478;BME280;12598;62.382;17.344;2022-08-18T00:00:53;101450.03;;;27.40;35.06
13478;BME280;12598;62.382;17.344;2022-08-18T00:02:24;101386.34;;;27.08;35.21
13478;BME280;12598;62.382;17.344;2022-08-18T00:03:30;101377.72;;;27.04;35.03
13478;BME280;12598;62.382;17.344;2022-08-18T00:04:54;101476.69;;;27.66;35.03
13478;BME280;12598;62.382;17.344;2022-08-18T00:05:57;101394.50;;;27.08;34.71
13478;BME280;12598;62.382;17.344;2022-08-18T00:06:59;101435.94;;;27.30;35.15
13478;BME280;12598;62.382;17.344;2022-08-18T00:08:01;101424.06;;;27.17;35.24
13478;BME280;12598;62.382;17.344;2022-08-18T00:09:06;101492.66;;;27.54;35.09
13478;BME280;12598;62.382;17.344;2022-08-18T00:10:08;101337.94;;;26.61;34.98
13478;BME280;12598;62.382;17.344;2022-08-18T00:11:19;101445.50;;;27.26;34.86
13478;BME280;12598;62.382;17.344;2022-08-18T00:12:23;101504.34;;;27.55;34.83
13478;BME280;12598;62.382;17.344;2022-08-18T00:13:26;101459.66;;;27.22;34.99
13478;BME280;12598;62.382;17.344;2022-08-18T00:14:27;101421.81;;;27.06;35.13
13478;BME280;12598;62.382;17.344;2022-08-18T00:15:29;101471.06;;;27.32;35.11
13478;BME280;12598;62.382;17.344;2022-08-18T00:16:31;101439.44;;;27.10;35.06
13478;BME280;12598;62.382;17.344;2022-08-18T00:17:34;101478.81;;;27.35;35.11
13478;BME280;12598;62.382;17.344;2022-08-18T00:18:37;101380.50;;;26.75;35.13
13478;BME280;12598;62.382;17.344;2022-08-18T00:19:39;101463.03;;;27.24;35.01
13478;BME280;12598;62.382;17.344;2022-08-18T00:20:48;101349.84;;;26.60;35.10
13478;BME280;12598;62.382;17.344;2022-08-18T00:21:50;101361.53;;;26.61;34.86
13478;BME280;12598;62.382;17.344;2022-08-18T00:22:52;101420.25;;;26.97;34.71
13478;BME280;12598;62.382;17.344;2022-08-18T00:23:57;101460.03;;;27.19;34.93
13478;BME280;12598;62.382;17.344;2022-08-18T00:24:58;101461.34;;;27.23;34.86
13478;BME280;12598;62.382;17.344;2022-08-18T00:26:00;101425.94;;;27.02;34.95
13478;BME280;12598;62.382;17.344;2022-08-18T00:27:05;101449.66;;;27.08;35.25
13478;BME280;12598;62.382;17.344;2022-08-18T00:28:08;101460.88;;;27.20;35.03
13478;BME280;12598;62.382;17.344;2022-08-18T00:29:10;101482.69;;;27.26;35.06
13478;BME280;12598;62.382;17.344;2022-08-18T00:30:19;101505.50;;;27.46;35.05
13478;BME280;12598;62.382;17.344;2022-08-18T00:31:21;101457.88;;;27.15;34.85
13478;BME280;12598;62.382;17.344;2022-08-18T00:32:36;101443.53;;;27.06;35.33
13478;BME280;12598;62.382;17.344;2022-08-18T00:33:38;101404.84;;;26.83;35.08
13478;BME280;12598;62.382;17.344;2022-08-18T00:34:40;101490.25;;;27.30;34.86
13478;BME280;12598;62.382;17.344;2022-08-18T00:35:42;101391.00;;;26.64;35.02
13478;BME280;12598;62.382;17.344;2022-08-18T00:36:45;101380.88;;;26.58;35.17
13478;BME280;12598;62.382;17.344;2022-08-18T00:37:47;101375.84;;;26.55;34.90
13478;BME280;12598;62.382;17.344;2022-08-18T00:38:49;101470.59;;;27.14;34.82
13478;BME280;12598;62.382;17.344;2022-08-18T00:39:52;101484.19;;;27.14;34.67
13478;BME280;12598;62.382;17.344;2022-08-18T00:40:55;101515.72;;;27.44;34.78
13478;BME280;12598;62.382;17.344;2022-08-18T00:41:57;101387.44;;;26.63;34.68
13478;BME280;12598;62.382;17.344;2022-08-18T00:43:01;101354.22;;;26.47;35.08
13478;BME280;12598;62.382;17.344;2022-08-18T00:44:03;101392.47;;;26.66;34.79
13478;BME280;12598;62.382;17.344;2022-08-18T00:45:06;101355.16;;;26.39;34.88
13478;BME280;12598;62.382;17.344;2022-08-18T00:46:14;101394.91;;;26.61;35.04
13478;BME280;12598;62.382;17.344;2022-08-18T00:47:17;101506.94;;;27.27;34.81
13478;BME280;12598;62.382;17.344;2022-08-18T00:48:39;101445.06;;;26.94;34.57
13478;BME280;12598;62.382;17.344;2022-08-18T00:49:50;101392.41;;;26.60;34.68
13478;BME280;12598;62.382;17.344;2022-08-18T00:50:59;101509.84;;;27.26;34.74
13478;BME280;12598;62.382;17.344;2022-08-18T00:52:04;101500.47;;;27.14;34.46
13478;BME280;12598;62.382;17.344;2022-08-18T00:53:12;101542.22;;;27.42;34.76
13478;BME280;12598;62.382;17.344;2022-08-18T00:54:18;101540.34;;;27.42;34.76
13478;BME280;12598;62.382;17.344;2022-08-18T00:55:22;101413.25;;;26.59;34.72
13478;BME280;12598;62.382;17.344;2022-08-18T00:56:48;101501.91;;;27.10;34.82
13478;BME280;12598;62.382;17.344;2022-08-18T00:57:51;101444.91;;;26.81;34.38
13478;BME280;12598;62.382;17.344;2022-08-18T00:59:08;101439.25;;;26.68;34.63
13478;BME280;12598;62.382;17.344;2022-08-18T01:00:13;101508.44;;;27.16;34.60
13478;BME280;12598;62.382;17.344;2022-08-18T01:01:18;101505.16;;;27.06;34.56
13478;BME280;12598;62.382;17.344;2022-08-18T01:02:30;101509.56;;;27.07;34.82
13478;BME280;12598;62.382;17.344;2022-08-18T01:03:34;101503.66;;;27.03;34.27
13478;BME280;12598;62.382;17.344;2022-08-18T01:06:08;101555.97;;;27.40;34.36
13478;BME280;12598;62.382;17.344;2022-08-18T01:07:17;101495.03;;;27.00;34.42
13478;BME280;12598;62.382;17.344;2022-08-18T01:08:21;101450.75;;;26.70;34.49
13478;BME280;12598;62.382;17.344;2022-08-18T01:09:30;101567.88;;;27.39;34.58
13478;BME280;12598;62.382;17.344;2022-08-18T01:10:32;101546.25;;;27.17;34.82
13478;BME280;12598;62.382;17.344;2022-08-18T01:11:36;101573.91;;;27.35;34.52
13478;BME280;12598;62.382;17.344;2022-08-18T01:12:38;101509.47;;;27.00;34.53
13478;BME280;12598;62.382;17.344;2022-08-18T01:13:47;101549.63;;;27.19;34.51
13478;BME280;12598;62.382;17.344;2022-08-18T01:14:49;101509.28;;;27.02;34.69
13478;BME280;12598;62.382;17.344;2022-08-18T01:15:50;101440.38;;;26.59;34.48
13478;BME280;12598;62.382;17.344;2022-08-18T01:16:52;101491.97;;;26.88;34.41
13478;BME280;12598;62.382;17.344;2022-08-18T01:18:13;101500.66;;;26.98;34.59
13478;BME280;12598;62.382;17.344;2022-08-18T01:19:34;101499.81;;;26.98;34.49
13478;BME280;12598;62.382;17.344;2022-08-18T01:21:17;101568.19;;;27.44;34.63
13478;BME280;12598;62.382;17.344;2022-08-18T01:23:49;101474.38;;;26.84;34.45
13478;BME280;12598;62.382;17.344;2022-08-18T01:24:54;101525.94;;;27.13;34.54
13478;BME280;12598;62.382;17.344;2022-08-18T01:26:17;101501.03;;;26.95;34.10
13478;BME280;12598;62.382;17.344;2022-08-18T01:27:20;101502.34;;;26.99;34.27
13478;BME280;12598;62.382;17.344;2022-08-18T01:28:22;101509.84;;;26.97;34.50
13478;BME280;12598;62.382;17.344;2022-08-18T01:29:25;101471.56;;;26.78;34.65
13478;BME280;12598;62.382;17.344;2022-08-18T01:30:30;101511.69;;;26.97;34.42
13478;BME280;12598;62.382;17.344;2022-08-18T01:31:38;101557.72;;;27.27;34.38
13478;BME280;12598;62.382;17.344;2022-08-18T01:32:55;101563.41;;;27.32;34.57
13478;BME280;12598;62.382;17.344;2022-08-18T01:33:57;101522.38;;;26.98;34.41
13478;BME280;12598;62.382;17.344;2022-08-18T01:35:00;101517.31;;;26.95;34.45
13478;BME280;12598;62.382;17.344;2022-08-18T01:37:10;101414.88;;;26.31;34.61
13478;BME280;12598;62.382;17.344;2022-08-18T01:38:12;101492.41;;;26.77;34.31
13478;BME280;12598;62.382;17.344;2022-08-18T01:39:14;101548.78;;;27.04;34.72
13478;BME280;12598;62.382;17.344;2022-08-18T01:40:36;101523.19;;;26.99;34.31
13478;BME280;12598;62.382;17.344;2022-08-18T01:41:58;101545.63;;;27.15;34.16
13478;BME280;12598;62.382;17.344;2022-08-18T01:43:00;101432.13;;;26.38;34.66
13478;BME280;12598;62.382;17.344;2022-08-18T01:44:04;101433.53;;;26.49;34.55
13478;BME280;12598;62.382;17.344;2022-08-18T01:45:07;101504.31;;;26.91;34.73
13478;BME280;12598;62.382;17.344;2022-08-18T01:46:09;101479.69;;;26.63;34.70
13478;BME280;12598;62.382;17.344;2022-08-18T01:47:11;101536.88;;;27.05;34.60
13478;BME280;12598;62.382;17.344;2022-08-18T01:48:13;101503.38;;;26.84;34.62
13478;BME280;12598;62.382;17.344;2022-08-18T01:49:15;101473.81;;;26.60;34.13
13478;BME280;12598;62.382;17.344;2022-08-18T01:50:17;101429.09;;;26.33;34.60
13478;BME280;12598;62.382;17.344;2022-08-18T01:51:19;101513.69;;;26.88;34.52
13478;BME280;12598;62.382;17.344;2022-08-18T01:52:41;101517.50;;;26.94;34.43
13478;BME280;12598;62.382;17.344;2022-08-18T01:53:43;101445.72;;;26.53;34.74
13478;BME280;12598;62.382;17.344;2022-08-18T01:54:47;101433.44;;;26.42;34.33
13478;BME280;12598;62.382;17.344;2022-08-18T01:55:49;101545.53;;;27.09;34.31
13478;BME280;12598;62.382;17.344;2022-08-18T01:56:51;101507.22;;;26.89;34.40
13478;BME280;12598;62.382;17.344;2022-08-18T01:57:54;101534.91;;;26.99;34.35
13478;BME280;12598;62.382;17.344;2022-08-18T01:58:56;101518.06;;;26.89;34.30
13478;BME280;12598;62.382;17.344;2022-08-18T01:59:58;101491.09;;;26.73;34.21
13478;BME280;12598;62.382;17.344;2022-08-18T02:01:02;101514.34;;;26.90;34.15
13478;BME280;12598;62.382;17.344;2022-08-18T02:02:05;101563.22;;;27.19;34.46
13478;BME280;12598;62.382;17.344;2022-08-18T02:03:13;101485.28;;;26.76;34.31
13478;BME280;12598;62.382;17.344;2022-08-18T02:04:16;101550.19;;;27.00;34.42
13478;BME280;12598;62.382;17.344;2022-08-18T02:05:41;101545.69;;;27.07;34.46
13478;BME280;12598;62.382;17.344;2022-08-18T02:06:44;101517.69;;;26.92;33.94
13478;BME280;12598;62.382;17.344;2022-08-18T02:07:48;101399.28;;;26.19;34.21
13478;BME280;12598;62.382;17.344;2022-08-18T02:08:54;101456.56;;;26.53;34.23
13478;BME280;12598;62.382;17.344;2022-08-18T02:09:57;101502.72;;;26.82;34.18
13478;BME280;12598;62.382;17.344;2022-08-18T02:10:59;101526.75;;;26.85;34.13
13478;BME280;12598;62.382;17.344;2022-08-18T02:12:02;101549.16;;;27.01;34.20
13478;BME280;12598;62.382;17.344;2022-08-18T02:13:07;101487.44;;;26.66;34.23
13478;BME280;12598;62.382;17.344;2022-08-18T02:14:09;101405.53;;;26.19;34.19
13478;BME280;12598;62.382;17.344;2022-08-18T02:15:11;101466.31;;;26.47;34.51
13478;BME280;12598;62.382;17.344;2022-08-18T02:16:13;101524.25;;;26.83;34.40
13478;BME280;12598;62.382;17.344;2022-08-18T02:17:15;101525.72;;;26.86;34.21
13478;BME280;12598;62.382;17.344;2022-08-18T02:18:19;101579.22;;;27.14;34.36
13478;BME280;12598;62.382;17.344;2022-08-18T02:19:43;101496.16;;;26.76;34.28
13478;BME280;12598;62.382;17.344;2022-08-18T02:20:46;101561.69;;;27.02;34.42
13478;BME280;12598;62.382;17.344;2022-08-18T02:21:50;101491.94;;;26.59;34.34
13478;BME280;12598;62.382;17.344;2022-08-18T02:22:52;101498.78;;;26.70;34.39
13478;BME280;12598;62.382;17.344;2022-08-18T02:23:54;101445.09;;;26.28;34.25
13478;BME280;12598;62.382;17.344;2022-08-18T02:24:56;101515.91;;;26.70;34.21
13478;BME280;12598;62.382;17.344;2022-08-18T02:26:00;101486.69;;;26.58;34.18
13478;BME280;12598;62.382;17.344;2022-08-18T02:27:05;101502.69;;;26.67;34.27
13478;BME280;12598;62.382;17.344;2022-08-18T02:28:07;101546.91;;;26.90;34.24
13478;BME280;12598;62.382;17.344;2022-08-18T02:29:09;101511.69;;;26.68;34.33
13478;BME280;12598;62.382;17.344;2022-08-18T02:30:15;101591.13;;;27.13;34.40
13478;BME280;12598;62.382;17.344;2022-08-18T02:31:19;101436.25;;;26.12;34.58
13478;BME280;12598;62.382;17.344;2022-08-18T02:32:21;101434.56;;;26.11;34.50
13478;BME280;12598;62.382;17.344;2022-08-18T02:33:25;101459.78;;;26.34;34.39
13478;BME280;12598;62.382;17.344;2022-08-18T02:34:27;101539.22;;;26.79;34.26
13478;BME280;12598;62.382;17.344;2022-08-18T02:35:29;101448.81;;;26.27;34.17
13478;BME280;12598;62.382;17.344;2022-08-18T02:36:31;101515.44;;;26.67;34.13
13478;BME280;12598;62.382;17.344;2022-08-18T02:37:33;101549.91;;;26.95;34.27
13478;BME280;12598;62.382;17.344;2022-08-18T02:38:35;101484.53;;;26.53;34.33
13478;BME280;12598;62.382;17.344;2022-08-18T02:39:40;101512.91;;;26.65;33.87
13478;BME280;12598;62.382;17.344;2022-08-18T02:40:42;101510.94;;;26.74;34.00
13478;BME280;12598;62.382;17.344;2022-08-18T02:41:46;101493.81;;;26.59;34.16
13478;BME280;12598;62.382;17.344;2022-08-18T02:42:48;101557.09;;;26.88;33.99
13478;BME280;12598;62.382;17.344;2022-08-18T02:43:53;101541.75;;;26.81;33.90
13478;BME280;12598;62.382;17.344;2022-08-18T02:44:55;101536.50;;;26.79;34.04
13478;BME280;12598;62.382;17.344;2022-08-18T02:45:57;101523.00;;;26.71;34.31
13478;BME280;12598;62.382;17.344;2022-08-18T02:46:59;101571.63;;;26.95;33.62
13478;BME280;12598;62.382;17.344;2022-08-18T02:48:01;101523.38;;;26.68;34.27
13478;BME280;12598;62.382;17.344;2022-08-18T02:49:05;101591.84;;;27.07;34.10
13478;BME280;12598;62.382;17.344;2022-08-18T02:50:09;101423.66;;;26.04;33.89
13478;BME280;12598;62.382;17.344;2022-08-18T02:51:15;101599.00;;;27.08;33.87
13478;BME280;12598;62.382;17.344;2022-08-18T02:52:17;101405.69;;;26.03;33.79
13478;BME280;12598;62.382;17.344;2022-08-18T02:53:19;101538.53;;;26.77;33.97
13478;BME280;12598;62.382;17.344;2022-08-18T02:54:24;101592.53;;;27.09;34.08
13478;BME280;12598;62.382;17.344;2022-08-18T02:55:26;101439.63;;;26.14;34.04
13478;BME280;12598;62.382;17.344;2022-08-18T02:56:30;101595.41;;;27.08;33.97
13478;BME280;12598;62.382;17.344;2022-08-18T02:57:46;101457.63;;;26.29;34.05
13478;BME280;12598;62.382;17.344;2022-08-18T02:58:51;101493.75;;;26.44;33.75
13478;BME280;12598;62.382;17.344;2022-08-18T02:59:54;101561.66;;;26.73;33.72
13478;BME280;12598;62.382;17.344;2022-08-18T03:00:56;101436.84;;;26.07;33.97
13478;BME280;12598;62.382;17.344;2022-08-18T03:01:58;101575.72;;;26.91;33.82
13478;BME280;12598;62.382;17.344;2022-08-18T03:03:00;101583.66;;;26.93;33.85
13478;BME280;12598;62.382;17.344;2022-08-18T03:04:02;101470.22;;;26.22;33.94
13478;BME280;12598;62.382;17.344;2022-08-18T03:05:07;101558.94;;;26.73;33.95
13478;BME280;12598;62.382;17.344;2022-08-18T03:06:16;101559.97;;;26.72;34.05
13478;BME280;12598;62.382;17.344;2022-08-18T03:07:18;101554.16;;;26.75;33.97
13478;BME280;12598;62.382;17.344;2022-08-18T03:08:20;101558.56;;;26.76;33.96
13478;BME280;12598;62.382;17.344;2022-08-18T03:09:22;101523.56;;;26.52;33.96
13478;BME280;12598;62.382;17.344;2022-08-18T03:10:24;101554.47;;;26.66;33.96
13478;BME280;12598;62.382;17.344;2022-08-18T03:11:35;101609.38;;;27.05;33.93
13478;BME280;12598;62.382;17.344;2022-08-18T03:12:37;101473.31;;;26.19;33.82
13478;BME280;12598;62.382;17.344;2022-08-18T03:13:39;101563.72;;;26.71;33.80
13478;BME280;12598;62.382;17.344;2022-08-18T03:14:41;101471.47;;;26.20;33.93
13478;BME280;12598;62.382;17.344;2022-08-18T03:15:42;101565.75;;;26.69;33.93
13478;BME280;12598;62.382;17.344;2022-08-18T03:16:46;101621.63;;;27.01;33.98
13478;BME280;12598;62.382;17.344;2022-08-18T03:17:55;101607.72;;;26.96;33.83
13478;BME280;12598;62.382;17.344;2022-08-18T03:18:57;101626.03;;;27.02;34.03
13478;BME280;12598;62.382;17.344;2022-08-18T03:19:59;101573.81;;;26.77;33.80
13478;BME280;12598;62.382;17.344;2022-08-18T03:21:05;101571.19;;;26.69;34.15
13478;BME280;12598;62.382;17.344;2022-08-18T03:22:08;101560.53;;;26.68;33.86
13478;BME280;12598;62.382;17.344;2022-08-18T03:23:29;101490.25;;;26.21;34.03
13478;BME280;12598;62.382;17.344;2022-08-18T03:24:31;101556.03;;;26.60;33.72
13478;BME280;12598;62.382;17.344;2022-08-18T03:25:33;101565.75;;;26.69;33.80
13478;BME280;12598;62.382;17.344;2022-08-18T03:26:40;101591.78;;;26.78;33.85
13478;BME280;12598;62.382;17.344;2022-08-18T03:27:42;101557.72;;;26.61;33.83
13478;BME280;12598;62.382;17.344;2022-08-18T03:28:46;101490.81;;;26.17;33.96
13478;BME280;12598;62.382;17.344;2022-08-18T03:29:48;101544.44;;;26.44;33.91
13478;BME280;12598;62.382;17.344;2022-08-18T03:30:51;101557.59;;;26.55;34.10
13478;BME280;12598;62.382;17.344;2022-08-18T03:31:53;101526.44;;;26.28;33.73
13478;BME280;12598;62.382;17.344;2022-08-18T03:32:55;101645.56;;;26.97;33.91
13478;BME280;12598;62.382;17.344;2022-08-18T03:33:59;101644.53;;;26.98;33.93
13478;BME280;12598;62.382;17.344;2022-08-18T03:35:02;101581.47;;;26.59;33.87
13478;BME280;12598;62.382;17.344;2022-08-18T03:36:05;101603.38;;;26.72;34.22
13478;BME280;12598;62.382;17.344;2022-08-18T03:37:07;101605.72;;;26.75;34.05
13478;BME280;12598;62.382;17.344;2022-08-18T03:38:10;101509.78;;;26.17;34.31
13478;BME280;12598;62.382;17.344;2022-08-18T03:39:12;101518.09;;;26.15;34.33
13478;BME280;12598;62.382;17.344;2022-08-18T03:40:14;101592.25;;;26.67;34.25
13478;BME280;12598;62.382;17.344;2022-08-18T03:41:18;101500.31;;;26.13;34.10
13478;BME280;12598;62.382;17.344;2022-08-18T03:42:41;101643.13;;;27.02;34.30
13478;BME280;12598;62.382;17.344;2022-08-18T03:43:43;101616.03;;;26.80;33.98
13478;BME280;12598;62.382;17.344;2022-08-18T03:44:52;101533.63;;;26.21;33.81
13478;BME280;12598;62.382;17.344;2022-08-18T03:45:54;101507.59;;;26.12;34.11
13478;BME280;12598;62.382;17.344;2022-08-18T03:46:56;101490.38;;;26.05;33.79
13478;BME280;12598;62.382;17.344;2022-08-18T03:47:58;101521.09;;;26.20;33.81
13478;BME280;12598;62.382;17.344;2022-08-18T03:49:01;101577.97;;;26.51;34.05
13478;BME280;12598;62.382;17.344;2022-08-18T03:50:03;101645.94;;;26.94;33.83
13478;BME280;12598;62.382;17.344;2022-08-18T03:52:19;101642.94;;;26.89;34.37
13478;BME280;12598;62.382;17.344;2022-08-18T03:53:21;101620.66;;;26.79;33.61
13478;BME280;12598;62.382;17.344;2022-08-18T03:54:22;101609.19;;;26.69;33.99
13478;BME280;12598;62.382;17.344;2022-08-18T03:55:26;101595.94;;;26.52;33.91
13478;BME280;12598;62.382;17.344;2022-08-18T03:56:35;101649.69;;;26.93;33.86
13478;BME280;12598;62.382;17.344;2022-08-18T03:57:38;101523.50;;;26.15;33.99
13478;BME280;12598;62.382;17.344;2022-08-18T03:58:48;101614.88;;;26.60;33.82
13478;BME280;12598;62.382;17.344;2022-08-18T03:59:50;101541.09;;;26.19;34.10
13478;BME280;12598;62.382;17.344;2022-08-18T04:00:53;101657.81;;;26.93;33.78
13478;BME280;12598;62.382;17.344;2022-08-18T04:01:55;101463.34;;;25.75;33.99
13478;BME280;12598;62.382;17.344;2022-08-18T04:02:57;101586.78;;;26.53;33.76
13478;BME280;12598;62.382;17.344;2022-08-18T04:04:02;101632.50;;;26.78;33.87
13478;BME280;12598;62.382;17.344;2022-08-18T04:05:05;101615.34;;;26.63;34.05
13478;BME280;12598;62.382;17.344;2022-08-18T04:06:13;101610.28;;;26.60;33.67
13478;BME280;12598;62.382;17.344;2022-08-18T04:07:30;101606.38;;;26.63;33.78
13478;BME280;12598;62.382;17.344;2022-08-18T04:08:32;101629.78;;;26.78;33.78
13478;BME280;12598;62.382;17.344;2022-08-18T04:09:36;101538.75;;;26.16;33.89
13478;BME280;12598;62.382;17.344;2022-08-18T04:10:38;101592.31;;;26.37;33.97
13478;BME280;12598;62.382;17.344;2022-08-18T04:11:42;101653.13;;;26.87;33.87
13478;BME280;12598;62.382;17.344;2022-08-18T04:12:44;101611.69;;;26.56;33.81
13478;BME280;12598;62.382;17.344;2022-08-18T04:13:47;101458.88;;;25.60;33.92
13478;BME280;12598;62.382;17.344;2022-08-18T04:14:49;101637.34;;;26.68;33.89
13478;BME280;12598;62.382;17.344;2022-08-18T04:15:51;101475.53;;;25.71;33.69
13478;BME280;12598;62.382;17.344;2022-08-18T04:16:52;101592.69;;;26.34;34.01
13478;BME280;12598;62.382;17.344;2022-08-18T04:18:00;101628.63;;;26.58;34.08
13478;BME280;12598;62.382;17.344;2022-08-18T04:19:06;101664.66;;;26.89;33.83
13478;BME280;12598;62.382;17.344;2022-08-18T04:20:08;101636.03;;;26.64;34.04
13478;BME280;12598;62.382;17.344;2022-08-18T04:21:11;101670.25;;;26.88;33.76
13478;BME280;12598;62.382;17.344;2022-08-18T04:22:14;101540.28;;;25.96;33.80
13478;BME280;12598;62.382;17.344;2022-08-18T04:23:18;101666.94;;;26.78;33.65
13478;BME280;12598;62.382;17.344;2022-08-18T04:24:22;101637.91;;;26.64;33.73
13478;BME280;12598;62.382;17.344;2022-08-18T04:25:25;101613.81;;;26.46;33.73
13478;BME280;12598;62.382;17.344;2022-08-18T04:26:43;101673.81;;;26.88;33.83
13478;BME280;12598;62.382;17.344;2022-08-18T04:27:45;101610.53;;;26.51;33.84
13478;BME280;12598;62.382;17.344;2022-08-18T04:28:48;101641.44;;;26.64;33.60
13478;BME280;12598;62.382;17.344;2022-08-18T04:29:50;101641.88;;;26.76;33.82
13478;BME280;12598;62.382;17.344;2022-08-18T04:30:52;101657.50;;;26.74;33.55
13478;BME280;12598;62.382;17.344;2022-08-18T04:31:54;101580.75;;;26.20;33.93
13478;BME280;12598;62.382;17.344;2022-08-18T04:32:56;101633.88;;;26.60;33.90
13478;BME280;12598;62.382;17.344;2022-08-18T04:34:00;101662.63;;;26.69;33.87
13478;BME280;12598;62.382;17.344;2022-08-18T04:35:02;101625.13;;;26.50;33.76
13478;BME280;12598;62.382;17.344;2022-08-18T04:36:12;101623.94;;;26.52;34.05
13478;BME280;12598;62.382;17.344;2022-08-18T04:37:21;101560.59;;;26.15;33.96
13478;BME280;12598;62.382;17.344;2022-08-18T04:38:23;101679.63;;;26.85;33.98
13478;BME280;12598;62.382;17.344;2022-08-18T04:39:25;101640.34;;;26.59;33.82
13478;BME280;12598;62.382;17.344;2022-08-18T04:40:27;101636.94;;;26.57;33.69
13478;BME280;12598;62.382;17.344;2022-08-18T04:41:30;101520.31;;;25.89;33.79
13478;BME280;12598;62.382;17.344;2022-08-18T04:42:32;101568.88;;;26.21;34.27
13478;BME280;12598;62.382;17.344;2022-08-18T04:43:40;101669.97;;;26.83;33.86
13478;BME280;12598;62.382;17.344;2022-08-18T04:44:42;101508.34;;;25.84;34.13
13478;BME280;12598;62.382;17.344;2022-08-18T04:45:44;101497.34;;;25.77;33.90
13478;BME280;12598;62.382;17.344;2022-08-18T04:46:49;101668.47;;;26.80;33.82
13478;BME280;12598;62.382;17.344;2022-08-18T04:47:54;101449.78;;;25.53;33.82
13478;BME280;12598;62.382;17.344;2022-08-18T04:48:57;101672.00;;;26.81;33.91
13478;BME280;12598;62.382;17.344;2022-08-18T04:50:00;101615.34;;;26.41;33.66
13478;BME280;12598;62.382;17.344;2022-08-18T04:52:06;101680.34;;;26.79;33.80
13478;BME280;12598;62.382;17.344;2022-08-18T04:53:42;101667.38;;;26.89;33.79
13478;BME280;12598;62.382;17.344;2022-08-18T04:54:47;101642.31;;;26.65;33.86
13478;BME280;12598;62.382;17.344;2022-08-18T04:55:51;101638.63;;;26.58;33.81
13478;BME280;12598;62.382;17.344;2022-08-18T04:56:53;101661.97;;;26.67;34.14
13478;BME280;12598;62.382;17.344;2022-08-18T04:57:56;101620.59;;;26.42;33.90
13478;BME280;12598;62.382;17.344;2022-08-18T04:59:08;101603.16;;;26.37;33.95
13478;BME280;12598;62.382;17.344;2022-08-18T05:00:11;101643.22;;;26.57;33.88
13478;BME280;12598;62.382;17.344;2022-08-18T05:01:14;101657.94;;;26.63;33.57
13478;BME280;12598;62.382;17.344;2022-08-18T05:02:19;101679.50;;;26.79;33.86
13478;BME280;12598;62.382;17.344;2022-08-18T05:03:21;101682.38;;;26.77;33.62
13478;BME280;12598;62.382;17.344;2022-08-18T05:04:27;101658.28;;;26.60;33.75
13478;BME280;12598;62.382;17.344;2022-08-18T05:05:30;101559.41;;;25.95;34.00
13478;BME280;12598;62.382;17.344;2022-08-18T05:06:33;101649.41;;;26.43;33.99
13478;BME280;12598;62.382;17.344;2022-08-18T05:07:35;101675.25;;;26.62;34.03
13478;BME280;12598;62.382;17.344;2022-08-18T05:08:37;101641.25;;;26.43;34.00
13478;BME280;12598;62.382;17.344;2022-08-18T05:09:42;101636.88;;;26.42;33.86
13478;BME280;12598;62.382;17.344;2022-08-18T05:10:44;101597.00;;;26.20;33.98
13478;BME280;12598;62.382;17.344;2022-08-18T05:11:49;101696.63;;;26.79;33.86
13478;BME280;12598;62.382;17.344;2022-08-18T05:12:51;101699.16;;;26.81;33.43
13478;BME280;12598;62.382;17.344;2022-08-18T05:13:55;101692.28;;;26.70;33.83
13478;BME280;12598;62.382;17.344;2022-08-18T05:14:58;101632.44;;;26.49;33.86
13478;BME280;12598;62.382;17.344;2022-08-18T05:16:00;101638.50;;;26.51;33.59
13478;BME280;12598;62.382;17.344;2022-08-18T05:17:17;101614.31;;;26.42;33.40
13478;BME280;12598;62.382;17.344;2022-08-18T05:18:19;101675.75;;;26.80;33.82
13478;BME280;12598;62.382;17.344;2022-08-18T05:19:22;101563.31;;;26.15;33.58
13478;BME280;12598;62.382;17.344;2022-08-18T05:20:27;101647.75;;;26.65;33.50
13478;BME280;12598;62.382;17.344;2022-08-18T05:21:29;101610.06;;;26.47;33.35
13478;BME280;12598;62.382;17.344;2022-08-18T05:22:36;101695.09;;;26.99;33.43
13478;BME280;12598;62.382;17.344;2022-08-18T05:23:43;101550.13;;;26.12;33.71
13478;BME280;12598;62.382;17.344;2022-08-18T05:24:46;101626.69;;;26.67;33.10
13478;BME280;12598;62.382;17.344;2022-08-18T05:25:48;101653.22;;;26.79;33.36
13478;BME280;12598;62.382;17.344;2022-08-18T05:26:53;101666.34;;;26.90;33.31
13478;BME280;12598;62.382;17.344;2022-08-18T05:27:56;101650.13;;;26.82;33.12
13478;BME280;12598;62.382;17.344;2022-08-18T05:28:58;101702.75;;;27.18;33.28
13478;BME280;12598;62.382;17.344;2022-08-18T05:30:19;101708.13;;;27.26;33.06
13478;BME280;12598;62.382;17.344;2022-08-18T05:31:23;101705.19;;;27.27;32.87
13478;BME280;12598;62.382;17.344;2022-08-18T05:32:26;101682.63;;;27.13;33.10
13478;BME280;12598;62.382;17.344;2022-08-18T05:33:51;101644.25;;;26.93;32.77
13478;BME280;12598;62.382;17.344;2022-08-18T05:34:53;101622.91;;;26.90;32.69
13478;BME280;12598;62.382;17.344;2022-08-18T05:36:00;101702.31;;;27.29;32.80
13478;BME280;12598;62.382;17.344;2022-08-18T05:37:27;101713.28;;;27.50;32.53
13478;BME280;12598;62.382;17.344;2022-08-18T05:42:10;101622.16;;;26.96;32.18
13478;BME280;12598;62.382;17.344;2022-08-18T05:43:13;101657.91;;;27.22;32.47
13478;BME280;12598;62.382;17.344;2022-08-18T05:44:25;101719.13;;;27.61;32.53
13478;BME280;12598;62.382;17.344;2022-08-18T05:45:28;101665.88;;;27.23;32.20
13478;BME280;12598;62.382;17.344;2022-08-18T05:46:45;101658.91;;;27.21;32.18